Racecast

Samantha Geraets

Montana State (MT) · Fr · FRONT RANGECO D5A5A · Compare head to head

Athlete ratingi 115.9 2026 TF season
Best race 140.6 XC
Races 83
Seasons 6 2021 — 2026

RankedNation #2475·NCAA DI #1804·BIG SKY #86·MT #13·Team #21 ?

Rating scale ?
Speed rating — all races

Cross Country

XC speed rating

2025 XC 113.1

Montana State (MT) · Grade Fr

Date Meet Event Result Place Ratingi Difficultyi PR/SR Flags
2025-11-14 McCarthey Family Track and Field Complex 6000m 23:07.7 96th · 6th on team 115.0 +3.0% ★CR CSR
2025-11-01 Bridger Creek Golf Course 5000m 18:00 37th · 7th on team 116.3 +0.3% ★PR ★CR SR CSR RSR
2025-10-18 Gans Creek Recreation Area 6000m 23:39.6 327th · 8th on team 108.1 -1.1%
2025-09-26 Gans Creek Recreation Area 6000m 22:38.2 228th · 7th on team 113.9 -1.1% ★PR ★CR SR CSR RSR
2025-08-29 Montana State University 5000m 18:59.4 9th · 6th on team 112.3 +0.1% ★CR SR CSR RSR

2024 XC 135.9

Fossil Ridge (CO) · Grade 12

Date Meet Event Result Place Ratingi Difficultyi PR/SR Flags
2024-12-07 Glendoveer Golf Course 5000m 19:15.6 114th · 4th on team 135.9 +3.2% ★CR CSR
2024-11-23 Toka Sticks Golf Course 5000m 18:08.5 47th · 4th on team 138.0 -1.2% PR ★CR SR CSR
2024-11-02 Norris Penrose Event Center 5000m 18:33.8 23rd · 3rd on team 140.6 +4.3% ★CR ★R CSR RSR
2024-10-24 Spring Canyon Park 5000m 19:06 11th · 4th on team 134.5 +1.4% ★CR CSR
2024-10-04 Northwest Open Space 5000m 18:42 8th · 3rd on team 135.6 -0.3% R CSR RSR
2024-09-21 Lyons Middle/High School 5000m 19:04.9 15th · 4th on team 135.3 +2.3% ★CR R CSR RSR
2024-09-14 Heritage High School 5000m 18:31.6 43rd · 5th on team 135.2 -2.3% PR ★CR R SR CSR RSR
2024-08-31 Fort Collins High School 5000m 19:16 11th · 7th on team 132.6 0.0% ★CR SR CSR RSR

2023 XC 130.9

Fossil Ridge (CO) · Grade 11

Date Meet Event Result Place Ratingi Difficultyi PR/SR Flags
2023-11-18 Coyote Run Golf Course at Leisure World 5000m 19:27.6 126th · 6th on team 130.9 +0.7% ★CR CSR
2023-10-28 Norris Penrose Event Center 5000m 19:22.8 43rd · 5th on team 134.5 +4.3% CR CSR RSR
2023-10-19 Fairgrounds Park 5000m 20:35 13th · 6th on team 126.8 +2.5% ★CR CSR
2023-09-22 Clement Park 5000m 19:15.9 9th · 3rd on team 132.8 +0.7% ★CR CSR RSR
2023-09-09 Heritage High School 5000m 18:58.7 52nd · 4th on team 132.6 -2.3% CR SR CSR RSR
2023-09-03 Little America Golf Course 5000m 20:08 14th · 4th on team 130.8 +3.9% ★CR SR CSR RSR
2023-08-19 Spring Canyon Park 5000m 20:22 8th · 3rd on team 128.1 +1.4% SR CSR RSR

2022 XC 129.8

Fossil Ridge (CO) · Grade 10

Date Meet Event Result Place Ratingi Difficultyi PR/SR Flags
2022-12-03 John Hunt Cross Country Park 5000m 19:27.4 95th · 3rd on team 129.6 -1.7% ★CR CSR
2022-10-29 Norris Penrose Event Center 5000m 20:02 67th · 4th on team 132.0 +4.3% CSR
2022-10-20 Margaret W. Carpenter Recreation Center 5000m 19:25 6th · 3rd on team 131.5 -0.8% CSR
2022-10-07 Northwest Open Space 5000m 18:39 8th · 4th on team 134.6 -0.3% PR ★CR R SR CSR RSR
2022-09-17 Lyons Middle/High School 5000m 20:14.2 33rd · 3rd on team 129.2 +2.3% CR CSR
2022-09-10 Heritage High School 5000m 19:19.6 59th · 5th on team 125.7 -2.3% CR SR CSR
2022-09-02 Julia deKoevend Park 5000m 20:17.3 24th · 4th on team 129.9 +3.1% ★CR SR CSR RSR
2022-08-20 Spring Canyon Park 5000m 20:26 10th · 3rd on team 126.0 +1.4% SR CSR RSR

2021 XC 131.3

Fossil Ridge (CO) · Grade 9

Date Meet Event Result Place Ratingi Difficultyi PR/SR Flags
2021-10-30 Norris Penrose Event Center 5000m 19:58.4 53rd · 3rd on team 134.1 +4.3% CR R CSR RSR
2021-10-21 Monfort Park 5000m 19:13.4 6th · 3rd on team 133.5 -0.3% PR ★CR R SR CSR RSR
2021-10-08 Spring Canyon Park 5000m 19:50 14th · 4th on team 131.0 +1.4% CR CSR
2021-10-01 Margaret W. Carpenter Recreation Center 5000m 19:22.7 18th · 6th on team 131.9 -0.8% PR ★CR SR CSR
2021-09-24 Northwest Open Space 5000m 19:33.9 7th · 2nd on team 132.1 -0.3% CR R CSR RSR
2021-09-17 North Lake Park 5000m 20:10 16th · 6th on team 128.7 +1.8% ★CR CSR
2021-09-11 Heritage High School 5000m 19:32.9 55th · 5th on team 131.4 -2.3% PR CR R SR CSR RSR
2021-09-03 Broomfield County Commons Park 5000m 20:07 13th · 5th on team 130.0 +2.9% ★CR R CSR RSR
2021-08-28 Fort Collins High School 5000m 20:00 7th · 4th on team 129.4 0.0% PR CR R SR CSR RSR

Track & Field

TF speed rating

2026 TF 113.1

Montana State (MT) · Grade Fr

Date Meet Event Result Place Ratingi Difficultyi PR/SR Flags
2026-05-08 Tom Gage Classic 1500m 4:44.96 5th · 5th on team 115.7 +2.0%
2026-05-01 Idaho State Bengal Invitational 800m 2:19.14 3rd · 1st on team 116.3 +2.8% SR RSR
2026-05-01 Idaho State Bengal Invitational 1500m 4:44.78 1st · 1st on team 116.6 +2.8% RSR
2026-04-18 Bryan Clay Invitational 5000m 17:31.59 160th · 3rd on team 112.3 -2.1% ★PR SR
2026-04-18 Bryan Clay Invitational 1500m 4:42.65 311th · 9th on team 111.9 -2.1% ★PR SR
2026-04-03 Mike Fanelli Track Classic 5000m 17:39.46 74th · 4th on team 112.7 -1.0% PR SR RSR
2026-03-27 Al Manuel Invitational 1500m 4:48.99 13th · 9th on team 112.6 +0.7% PR SR RSR
2026-02-19 Big Sky Tuner 1mile 5:19.31 9th · 9th on team 111.8 +2.0% RSR
2026-02-13 Husky Classic 2026 1mile 5:13.22 121st · 6th on team 109.5 -1.7% ★PR SR
2026-02-06 Carignan Classic 1mile 5:20.29 10th · 5th on team 111.4 +2.0% SR RSR

2025 TF 129.3

Fort Collins-CO (CO) · Grade 12

Date Meet Event Result Place Ratingi Difficultyi PR/SR Flags
2025-06-22 Nike Outdoor Nationals 1500m 4:57.06 73rd · 2nd on team 126.1 -0.7% PR SR
2025-06-22 Nike Outdoor Nationals 800m 2:27.92 73rd · 1st on team 122.7 -0.7%
2025-06-22 Nike Outdoor Nationals 1600m 5:16.89 73rd · 2nd on team 127.2 -0.7%
2025-06-22 Nike Outdoor Nationals 1mile 5:18.98 73rd · 2nd on team 127.2 -0.7% PR SR
2025-05-15 CHSAA State Track & Field Championships 800m 2:18.12 13th · 2nd on team 135.8 +2.1%
2025-05-10 Teddy's Last Chance Qualifier 800m 2:16.84 3rd · 1st on team 136.0 +1.7% ★PR SR
2025-04-30 Northern Conference League Meet 800m 2:17.18 3rd · 2nd on team 136.3 +2.4% PR SR RSR
2025-04-19 Randall Hess Roughrider Invitational 400m 1:01.42 17th · 2nd on team +1.7% SR
2025-04-19 Randall Hess Roughrider Invitational 1600m 5:13.45 5th · 2nd on team 132.0 +1.7% ★PR SR
2025-04-12 Pomona Invite Day #2 800m 2:20.45 9th · 2nd on team 133.0 +2.1% SR RSR
2025-04-05 Altitude Running Invite 1600m 5:20.99 6th · 3rd on team 129.1 +1.9% PR SR RSR
2025-03-16 Nike Indoor Nationals 800m 2:21.76 40th · 3rd on team 127.3 -1.7% SR
2025-02-08 LAB Indoor Meet #9 800m 2:23.12 12th · 3rd on team 127.4 -0.3% SR RSR
2025-02-08 LAB Indoor Meet #9 400m 1:02.87 20th · 1st on team -0.3% SR
2025-01-31 Meet results → Women's Mile 5:25.7 41st · 1st on team 124.9 ★PR SR
2025-01-31 Meet results → Women's 400 Meters 1:06.03 28th · 1st on team ★PR SR
2025-01-16 Mines Indoor HS Meet Series #4 800m 2:31.19 12th · 3rd on team 125.6 +2.0% SR RSR
2025-01-16 Mines Indoor HS Meet Series #4 300m 46.71 17th · 4th on team +2.0% ★PR SR

2024 TF 129.8

Fossil Ridge (CO) · Grade 11

Date Meet Event Result Place Ratingi Difficultyi PR/SR Flags
2024-05-10 HOKA St. Vrain Invitational 800m 2:18.58 17th · 2nd on team 134.1 +1.7% PR SR RSR
2024-05-09 Wizard's Last Stand 400m 1:00.88 2nd · 1st on team +2.4% ★PR SR
2024-05-03 Front Range League Championships 400m 1:01.06 4th · 1st on team +2.5% SR
2024-05-03 Front Range League Championships 400m 1:03.82 21st · 6th on team +2.5%
2024-04-19 Huskie Twilight 400m 1:03.51 5th · 2nd on team +2.9%
2024-04-13 The Pomona Invitational 800m 2:20.91 15th · 3rd on team 132.5 +2.1% SR RSR
2024-04-04 Altitude Running Invitational 400m 1:01.53 3rd · 1st on team +2.5% SR
2024-03-23 Broomfield Shootout 400m 1:02.91 20th · 3rd on team +2.1% SR
2024-03-22 Race results → 800m 2:28.34 10th · 4th on team 122.7 SR RSR

2023 TF 130.4

Fossil Ridge (CO) · Grade 10

Date Meet Event Result Place Ratingi Difficultyi PR/SR Flags
2023-04-29 Stutler Twilight 800m 2:19.69 8th · 3rd on team 133.9 +1.8% PR SR RSR
2023-04-15 The Pomona Invitational 800m 2:21.63 9th · 3rd on team 132.8 +2.1% PR SR RSR
2023-04-08 Legend Titan Track Clash 400m 1:00.93 5th · 1st on team +2.9% PR SR
2023-04-01 Altitude Running Invitational 800m 2:23.53 7th · 2nd on team 130.9 +2.5% PR SR RSR
2023-03-11 Coyote/Panther Invitational 800m 2:30.67 2nd · 2nd on team 124.1 +2.1% PR SR RSR

2022 TF

Fossil Ridge (CO) · Grade 9

Date Meet Event Result Place Ratingi Difficultyi PR/SR Flags
2022-05-06 Front Range League Championships 400m 1:03.03 10th · 3rd on team +2.5%
2022-05-06 Front Range League Championships 400m 1:02.84 8th · 1st on team +2.5% PR SR
2022-04-16 Pomona Invitational 400m 1:03.24 26th · 1st on team +2.1%
2022-04-02 Altitude Invitational 400m 1:02.92 9th · 1st on team +2.5% PR SR